createdAt,value
2018-06-13T00:01:18.871Z,3.67
2018-06-13T00:03:47.120Z,3.60
2018-06-13T00:06:15.363Z,3.30
2018-06-13T00:08:43.600Z,3.30
2018-06-13T00:11:11.648Z,3.33
2018-06-13T00:13:39.888Z,3.30
2018-06-13T00:16:08.128Z,3.50
2018-06-13T00:18:36.425Z,3.30
2018-06-13T00:21:04.683Z,3.57
2018-06-13T00:23:32.920Z,3.27
2018-06-13T00:26:01.177Z,3.60
2018-06-13T00:28:29.412Z,3.47
2018-06-13T00:30:57.680Z,3.23
2018-06-13T00:33:25.919Z,3.20
2018-06-13T00:35:54.166Z,3.30
2018-06-13T00:38:22.383Z,3.13
2018-06-13T00:40:50.651Z,3.50
2018-06-13T00:43:18.666Z,3.33
2018-06-13T00:45:46.905Z,3.27
2018-06-13T00:48:15.158Z,3.27
2018-06-13T00:50:43.379Z,3.17
2018-06-13T00:53:11.628Z,3.40
2018-06-13T00:55:50.792Z,3.17
2018-06-13T00:58:19.037Z,3.10
2018-06-13T01:00:47.268Z,3.17
2018-06-13T01:03:15.500Z,3.60
2018-06-13T01:05:43.750Z,3.17
2018-06-13T01:08:12.008Z,3.40
2018-06-13T01:10:40.238Z,3.10
2018-06-13T01:13:08.472Z,3.37
2018-06-13T01:15:36.479Z,3.13
2018-06-13T01:18:04.843Z,3.07
2018-06-13T01:20:33.076Z,3.03
2018-06-13T01:23:01.322Z,3.60
2018-06-13T01:25:29.539Z,3.03
2018-06-13T01:27:57.792Z,3.40
2018-06-13T01:30:26.052Z,3.40
2018-06-13T01:32:54.303Z,3.07
2018-06-13T01:35:22.527Z,3.27
2018-06-13T01:37:50.792Z,3.23
2018-06-13T01:40:19.014Z,3.10
2018-06-13T01:42:47.257Z,3.10
2018-06-13T01:45:15.510Z,3.00
2018-06-13T01:47:43.765Z,2.70
2018-06-13T01:50:12.001Z,2.80
2018-06-13T01:52:40.287Z,2.57
2018-06-13T01:55:08.532Z,2.70
2018-06-13T01:57:36.782Z,2.83
2018-06-13T02:00:05.360Z,2.73
2018-06-13T02:02:33.598Z,2.57
2018-06-13T02:05:01.869Z,2.90
2018-06-13T02:07:30.112Z,3.07
2018-06-13T02:09:58.361Z,2.97
2018-06-13T02:12:26.570Z,3.07
2018-06-13T02:14:54.811Z,2.50
2018-06-13T02:17:23.044Z,2.50
2018-06-13T02:19:51.316Z,2.70
2018-06-13T02:22:19.557Z,2.90
2018-06-13T02:24:47.799Z,2.77
2018-06-13T02:27:16.033Z,2.50
2018-06-13T02:29:44.284Z,2.40
2018-06-13T02:32:12.495Z,3.20
2018-06-13T02:34:40.782Z,2.30
2018-06-13T02:37:09.011Z,2.57
2018-06-13T02:39:37.040Z,2.77
2018-06-13T02:42:05.346Z,2.57
2018-06-13T02:44:33.587Z,2.23
2018-06-13T02:47:01.823Z,2.50
2018-06-13T02:49:30.076Z,2.80
2018-06-13T02:51:58.334Z,2.30
2018-06-13T02:54:26.577Z,2.20
2018-06-13T02:56:54.869Z,2.43
2018-06-13T02:59:23.110Z,2.03
2018-06-13T03:01:51.334Z,2.20
2018-06-13T03:04:19.624Z,2.40
2018-06-13T03:06:47.614Z,2.33
2018-06-13T03:09:15.867Z,2.33
2018-06-13T03:11:44.114Z,2.13
2018-06-13T03:14:12.394Z,2.60
2018-06-13T03:16:40.707Z,2.17
2018-06-13T03:19:08.966Z,2.47
2018-06-13T03:21:36.993Z,2.50
2018-06-13T03:24:05.293Z,2.87
2018-06-13T03:26:33.560Z,2.60
2018-06-13T03:29:01.818Z,2.30
2018-06-13T03:31:30.095Z,2.30
2018-06-13T03:33:58.321Z,4.17
2018-06-13T03:36:26.563Z,2.33
2018-06-13T03:38:54.783Z,2.23
2018-06-13T03:41:23.024Z,2.37
2018-06-13T03:43:51.247Z,2.60
2018-06-13T03:46:19.492Z,2.23
2018-06-13T03:48:47.718Z,2.20
2018-06-13T03:51:16.003Z,2.07
2018-06-13T03:53:44.241Z,2.20
2018-06-13T03:56:12.495Z,2.10
2018-06-13T03:58:40.718Z,2.30
2018-06-13T04:01:08.951Z,2.40
2018-06-13T04:03:38.137Z,2.53
2018-06-13T04:06:06.589Z,2.10
2018-06-13T04:08:34.827Z,2.30
2018-06-13T04:11:03.104Z,2.20
2018-06-13T04:13:31.349Z,2.20
2018-06-13T04:15:59.598Z,2.53
2018-06-13T04:18:28.012Z,2.70
2018-06-13T04:20:56.239Z,2.17
2018-06-13T04:23:24.235Z,2.30
2018-06-13T04:25:52.443Z,2.40
2018-06-13T04:28:20.655Z,2.67
2018-06-13T04:30:48.843Z,2.47
2018-06-13T04:33:16.834Z,2.40
2018-06-13T04:35:45.031Z,2.60
2018-06-13T04:38:13.266Z,2.30
2018-06-13T04:40:41.493Z,2.40
2018-06-13T04:43:09.703Z,2.30
2018-06-13T04:45:37.952Z,2.40
2018-06-13T04:48:06.391Z,2.27
2018-06-13T04:50:34.595Z,2.53
2018-06-13T04:53:02.840Z,2.63
2018-06-13T04:55:31.058Z,2.43
2018-06-13T04:57:59.302Z,2.50
2018-06-13T05:00:27.499Z,2.43
2018-06-13T05:02:55.750Z,2.50
2018-06-13T05:05:23.986Z,2.50
2018-06-13T05:07:52.567Z,2.40
2018-06-13T05:10:20.786Z,2.40
2018-06-13T05:12:49.115Z,2.40
2018-06-13T05:15:17.116Z,2.87
2018-06-13T05:17:45.388Z,2.40
2018-06-13T05:20:13.634Z,2.60
2018-06-13T05:22:41.891Z,2.87
2018-06-13T05:25:10.088Z,2.37
2018-06-13T05:27:38.297Z,2.50
2018-06-13T05:30:06.568Z,2.57
2018-06-13T05:32:34.769Z,2.10
2018-06-13T05:35:03.851Z,2.67
2018-06-13T05:37:32.105Z,3.10
2018-06-13T05:40:00.428Z,2.83
2018-06-13T05:42:28.712Z,2.80
2018-06-13T05:44:56.716Z,2.63
2018-06-13T05:47:24.910Z,2.70
2018-06-13T05:49:53.123Z,3.07
2018-06-13T05:52:21.335Z,2.50
2018-06-13T05:54:49.661Z,2.53
2018-06-13T05:57:17.856Z,2.80
2018-06-13T05:59:46.079Z,2.50
2018-06-13T06:02:16.160Z,2.93
2018-06-13T06:04:44.512Z,3.23
2018-06-13T06:07:12.743Z,2.80
2018-06-13T06:09:40.977Z,2.80
2018-06-13T06:12:09.245Z,2.60
2018-06-13T06:14:37.491Z,2.40
2018-06-13T06:17:05.828Z,2.47
2018-06-13T06:19:34.148Z,2.20
2018-06-13T06:22:02.369Z,2.90
2018-06-13T06:24:31.336Z,2.40
2018-06-13T06:26:59.597Z,2.80
2018-06-13T06:29:27.819Z,2.33
2018-06-13T06:31:56.323Z,2.20
2018-06-13T06:34:24.538Z,2.30
2018-06-13T06:36:52.775Z,2.30
2018-06-13T06:39:21.012Z,2.10
2018-06-13T06:41:49.243Z,2.00
2018-06-13T06:44:17.464Z,2.30
2018-06-13T06:46:45.686Z,2.70
2018-06-13T06:49:13.890Z,2.70
2018-06-13T06:51:42.159Z,2.77
2018-06-13T06:54:10.587Z,2.53
2018-06-13T06:56:38.859Z,2.63
2018-06-13T06:59:07.074Z,2.47
2018-06-13T07:01:35.649Z,2.50
2018-06-13T07:04:03.872Z,2.63
2018-06-13T07:06:32.103Z,2.67
2018-06-13T07:09:00.311Z,2.40
2018-06-13T07:11:28.520Z,2.80
2018-06-13T07:13:56.732Z,3.13
2018-06-13T07:16:25.053Z,2.60
2018-06-13T07:18:53.269Z,2.50
2018-06-13T07:21:21.247Z,2.90
2018-06-13T07:23:49.690Z,2.40
2018-06-13T07:26:17.888Z,2.73
2018-06-13T07:28:46.224Z,3.10
2018-06-13T07:31:14.427Z,2.97
2018-06-13T07:33:42.683Z,3.00
2018-06-13T07:36:10.903Z,3.07
2018-06-13T07:38:39.115Z,3.60
2018-06-13T07:41:07.331Z,3.33
2018-06-13T07:43:35.574Z,3.30
2018-06-13T07:46:04.617Z,2.90
2018-06-13T07:48:32.823Z,3.17
2018-06-13T07:51:01.264Z,2.90
2018-06-13T07:53:29.254Z,2.93
2018-06-13T07:55:57.465Z,2.57
2018-06-13T07:58:25.677Z,3.00
2018-06-13T08:00:53.889Z,2.50
2018-06-13T08:03:22.112Z,2.30
2018-06-13T08:05:50.336Z,2.40
2018-06-13T08:08:18.575Z,2.10
2018-06-13T08:10:46.774Z,1.97
2018-06-13T08:13:15.008Z,2.27
2018-06-13T08:15:43.214Z,2.10
2018-06-13T08:18:11.517Z,2.23
2018-06-13T08:20:39.716Z,2.33
2018-06-13T08:23:07.971Z,2.07
2018-06-13T08:25:36.169Z,2.30
2018-06-13T08:28:04.415Z,1.73
2018-06-13T08:30:32.633Z,1.97
2018-06-13T08:33:00.886Z,2.07
2018-06-13T08:35:29.110Z,2.10
2018-06-13T08:37:57.334Z,1.80
2018-06-13T08:40:25.551Z,2.27
2018-06-13T08:42:53.746Z,2.20
2018-06-13T08:45:21.966Z,2.00
2018-06-13T08:47:50.202Z,2.50
2018-06-13T08:50:18.415Z,1.97
2018-06-13T08:52:46.621Z,2.27
2018-06-13T08:55:14.831Z,2.10
2018-06-13T08:57:43.070Z,2.10
2018-06-13T09:00:11.285Z,1.80
2018-06-13T09:02:39.511Z,2.20
2018-06-13T09:05:07.755Z,1.67
2018-06-13T09:07:35.977Z,1.60
2018-06-13T09:10:04.237Z,1.40
2018-06-13T09:12:32.439Z,1.40
2018-06-13T09:15:00.695Z,1.70
2018-06-13T09:17:28.887Z,1.30
2018-06-13T09:19:57.152Z,1.50
2018-06-13T09:22:25.375Z,1.40
2018-06-13T09:24:53.601Z,1.30
2018-06-13T09:27:21.800Z,1.20
2018-06-13T09:29:50.019Z,1.43
2018-06-13T09:32:18.231Z,1.40
2018-06-13T09:34:46.467Z,1.40
2018-06-13T09:37:14.683Z,1.30
2018-06-13T09:39:42.941Z,1.33
2018-06-13T09:42:11.147Z,1.37
2018-06-13T09:44:39.390Z,1.43
2018-06-13T09:47:15.131Z,1.50
2018-06-13T09:49:35.919Z,1.30
2018-06-13T09:52:04.189Z,1.27
2018-06-13T09:54:32.394Z,1.60
2018-06-13T09:57:00.635Z,1.40
2018-06-13T09:59:34.073Z,1.33
2018-06-13T10:02:07.697Z,1.50
2018-06-13T10:04:35.950Z,1.40
2018-06-13T10:07:04.178Z,1.80
2018-06-13T10:09:32.184Z,1.10
2018-06-13T10:12:00.528Z,1.30
2018-06-13T10:14:28.816Z,1.10
2018-06-13T10:16:57.048Z,1.43
2018-06-13T10:19:25.249Z,1.30
2018-06-13T10:21:53.473Z,1.00
2018-06-13T10:24:21.712Z,1.23
2018-06-13T10:26:49.943Z,1.80
2018-06-13T10:29:18.156Z,1.10
2018-06-13T10:31:46.429Z,1.00
2018-06-13T10:34:14.691Z,0.80
2018-06-13T10:36:42.871Z,1.10
2018-06-13T10:39:11.117Z,1.10
2018-06-13T10:41:39.371Z,1.10
2018-06-13T10:44:07.609Z,1.00
2018-06-13T10:46:35.807Z,1.03
2018-06-13T10:49:04.084Z,1.10
2018-06-13T10:51:32.313Z,1.00
2018-06-13T10:54:00.546Z,0.90
2018-06-13T10:56:28.785Z,0.80
2018-06-13T10:58:56.992Z,0.90
2018-06-13T11:01:25.207Z,0.80
2018-06-13T11:03:54.160Z,0.73
2018-06-13T11:06:22.379Z,1.13
2018-06-13T11:08:50.708Z,0.73
2018-06-13T11:11:19.073Z,0.83
2018-06-13T11:13:47.310Z,1.90
2018-06-13T11:16:15.517Z,1.30
2018-06-13T11:18:43.796Z,1.20
2018-06-13T11:21:12.007Z,1.20
2018-06-13T11:23:40.256Z,1.50
2018-06-13T11:26:08.478Z,1.23
2018-06-13T11:28:36.740Z,1.10
2018-06-13T11:31:04.974Z,1.43
2018-06-13T11:33:33.224Z,1.17
2018-06-13T11:36:01.435Z,1.47
2018-06-13T11:38:29.630Z,1.20
2018-06-13T11:40:57.840Z,1.50
2018-06-13T11:43:26.081Z,1.50
2018-06-13T11:45:54.347Z,1.60
2018-06-13T11:48:22.519Z,1.37
2018-06-13T11:50:50.758Z,1.30
2018-06-13T11:53:18.984Z,1.40
2018-06-13T11:55:47.237Z,1.43
2018-06-13T11:58:15.233Z,1.33
2018-06-13T12:00:43.469Z,1.40
2018-06-13T12:03:11.742Z,1.40
2018-06-13T12:05:40.060Z,1.77
2018-06-13T12:08:08.302Z,2.07
2018-06-13T12:10:36.536Z,1.43
2018-06-13T12:13:04.775Z,1.47
2018-06-13T12:15:33.016Z,1.30
2018-06-13T12:18:01.249Z,1.47
2018-06-13T12:20:31.084Z,1.50
2018-06-13T12:22:59.308Z,1.40
2018-06-13T12:25:27.529Z,1.70
2018-06-13T12:27:55.741Z,1.60
2018-06-13T12:30:23.985Z,1.47
2018-06-13T12:32:52.196Z,1.30
2018-06-13T12:35:20.430Z,1.27
2018-06-13T12:37:48.705Z,1.50
2018-06-13T12:40:17.021Z,1.30
2018-06-13T12:42:45.657Z,1.50
2018-06-13T12:45:13.863Z,1.50
2018-06-13T12:47:42.113Z,1.50
2018-06-13T12:50:10.324Z,1.53
2018-06-13T12:52:38.378Z,1.20
2018-06-13T12:55:06.635Z,1.30
2018-06-13T12:57:34.902Z,1.20
2018-06-13T13:00:03.099Z,1.30
2018-06-13T13:02:31.397Z,1.20
2018-06-13T13:04:59.656Z,1.50
2018-06-13T13:07:27.872Z,1.20
2018-06-13T13:09:56.097Z,1.33
2018-06-13T13:12:24.340Z,1.57
2018-06-13T13:14:52.654Z,1.50
2018-06-13T13:17:21.321Z,1.27
2018-06-13T13:19:49.571Z,1.40
2018-06-13T13:22:17.888Z,1.57
2018-06-13T13:24:46.157Z,1.67
2018-06-13T13:27:14.501Z,1.97
2018-06-13T13:29:42.783Z,1.43
2018-06-13T13:32:11.111Z,2.30
2018-06-13T13:34:39.323Z,1.73
2018-06-13T13:37:07.602Z,1.77
2018-06-13T13:39:35.864Z,1.67
2018-06-13T13:42:04.110Z,1.40
2018-06-13T13:44:32.100Z,1.20
2018-06-13T13:47:00.371Z,1.50
2018-06-13T13:49:28.563Z,1.37
2018-06-13T13:51:56.835Z,1.50
2018-06-13T13:54:25.110Z,1.53
2018-06-13T13:56:53.376Z,1.67
2018-06-13T13:59:21.588Z,1.53
2018-06-13T14:01:49.842Z,1.70
2018-06-13T14:04:18.114Z,1.70
2018-06-13T14:06:46.353Z,1.50
2018-06-13T14:09:14.571Z,1.90
2018-06-13T14:11:42.839Z,1.60
2018-06-13T14:14:11.122Z,1.57
2018-06-13T14:16:39.407Z,1.50
2018-06-13T14:19:07.627Z,1.30
2018-06-13T14:21:35.843Z,1.57
2018-06-13T14:24:04.065Z,1.80
2018-06-13T14:26:32.063Z,1.50
2018-06-13T14:29:00.329Z,1.30
2018-06-13T14:31:28.566Z,1.63
2018-06-13T14:33:56.783Z,1.50
2018-06-13T14:36:25.007Z,1.30
2018-06-13T14:38:53.238Z,1.80
2018-06-13T14:41:21.475Z,1.50
2018-06-13T14:43:49.726Z,1.63
2018-06-13T14:46:18.075Z,1.63
2018-06-13T14:48:46.291Z,1.47
2018-06-13T14:51:14.508Z,2.00
2018-06-13T14:53:42.744Z,1.90
2018-06-13T14:56:16.090Z,1.97
2018-06-13T14:58:44.323Z,1.77
2018-06-13T15:01:12.515Z,1.80
2018-06-13T15:03:41.475Z,1.60
2018-06-13T15:06:09.626Z,1.90
2018-06-13T15:08:38.035Z,1.80
2018-06-13T15:11:06.583Z,1.60
2018-06-13T15:13:34.954Z,1.70
2018-06-13T15:16:03.239Z,1.80
2018-06-13T15:18:31.463Z,1.70
2018-06-13T15:20:59.710Z,1.50
2018-06-13T15:23:27.991Z,1.50
2018-06-13T15:25:56.231Z,1.93
2018-06-13T15:28:24.471Z,2.00
2018-06-13T15:30:52.696Z,1.83
2018-06-13T15:33:20.920Z,1.83
2018-06-13T15:35:49.223Z,1.70
2018-06-13T15:38:17.427Z,1.67
2018-06-13T15:40:45.647Z,1.63
2018-06-13T15:43:13.896Z,1.67
2018-06-13T15:45:42.178Z,1.90
2018-06-13T15:48:10.394Z,2.10
2018-06-13T15:50:38.620Z,1.50
2018-06-13T15:53:06.834Z,1.90
2018-06-13T15:55:35.086Z,1.90
2018-06-13T15:58:03.333Z,2.10
2018-06-13T16:00:31.594Z,1.63
2018-06-13T16:02:59.811Z,1.90
2018-06-13T16:05:28.050Z,1.70
2018-06-13T16:07:56.259Z,2.20
2018-06-13T16:10:24.471Z,1.63
2018-06-13T16:12:52.720Z,1.70
2018-06-13T16:15:20.950Z,1.70
2018-06-13T16:17:49.200Z,1.60
2018-06-13T16:20:17.452Z,1.60
2018-06-13T16:22:46.089Z,1.50
2018-06-13T16:25:14.679Z,1.60
2018-06-13T16:27:42.918Z,1.80
2018-06-13T16:30:11.128Z,1.70
2018-06-13T16:32:39.342Z,2.40
2018-06-13T16:35:07.542Z,1.90
2018-06-13T16:37:35.764Z,1.67
2018-06-13T16:40:04.042Z,1.87
2018-06-13T16:42:32.663Z,1.90
2018-06-13T16:45:02.463Z,1.80
2018-06-13T16:47:31.768Z,1.97
2018-06-13T16:50:00.242Z,1.63
2018-06-13T16:52:39.900Z,1.80
2018-06-13T16:55:18.033Z,1.47
2018-06-13T16:57:46.289Z,1.80
2018-06-13T17:00:14.492Z,1.47
2018-06-13T17:02:42.727Z,1.80
2018-06-13T17:05:11.003Z,1.80
2018-06-13T17:07:39.233Z,2.03
2018-06-13T17:10:07.457Z,1.60
2018-06-13T17:12:35.527Z,1.77
2018-06-13T17:15:03.599Z,1.60
2018-06-13T17:17:31.619Z,1.90
2018-06-13T17:19:59.857Z,1.83
2018-06-13T17:22:28.071Z,1.80
2018-06-13T17:24:56.587Z,1.90
2018-06-13T17:27:24.828Z,1.47
2018-06-13T17:29:54.403Z,1.63
2018-06-13T17:32:22.779Z,1.90
2018-06-13T17:34:51.021Z,1.67
2018-06-13T17:37:19.291Z,1.97
2018-06-13T17:39:47.524Z,1.90
2018-06-13T17:42:15.727Z,2.00
2018-06-13T17:44:44.055Z,1.70
2018-06-13T17:47:12.380Z,1.67
2018-06-13T17:49:40.604Z,1.97
2018-06-13T17:52:08.946Z,2.30
2018-06-13T17:54:37.195Z,2.10
2018-06-13T17:57:05.615Z,1.90
2018-06-13T17:59:33.897Z,1.70
2018-06-13T18:02:02.103Z,2.67
2018-06-13T18:04:30.360Z,2.10
2018-06-13T18:06:58.585Z,2.27
2018-06-13T18:09:26.861Z,1.90
2018-06-13T18:11:55.037Z,1.93
2018-06-13T18:14:23.294Z,2.03
2018-06-13T18:16:51.504Z,1.93
2018-06-13T18:19:19.514Z,2.23
2018-06-13T18:21:47.782Z,2.27
2018-06-13T18:24:16.023Z,2.10
2018-06-13T18:26:44.005Z,2.10
2018-06-13T18:29:12.229Z,2.00
2018-06-13T18:31:40.476Z,1.70
2018-06-13T18:34:08.767Z,2.33
2018-06-13T18:36:37.055Z,2.10
2018-06-13T18:39:08.087Z,1.90
2018-06-13T18:41:36.415Z,2.00
2018-06-13T18:44:04.875Z,2.30
2018-06-13T18:46:32.886Z,2.07
2018-06-13T18:49:01.083Z,1.70
2018-06-13T18:51:29.310Z,2.00
2018-06-13T18:53:57.552Z,2.23
2018-06-13T18:56:25.788Z,2.30
2018-06-13T18:58:54.009Z,1.90
2018-06-13T19:01:22.247Z,1.80
2018-06-13T19:03:50.539Z,2.30
2018-06-13T19:06:18.752Z,2.20
2018-06-13T19:08:46.734Z,2.00
2018-06-13T19:11:15.035Z,2.30
2018-06-13T19:13:43.236Z,2.27
2018-06-13T19:16:11.470Z,2.90
2018-06-13T19:18:39.663Z,2.30
2018-06-13T19:21:07.911Z,2.27
2018-06-13T19:23:36.111Z,2.23
2018-06-13T19:26:04.341Z,2.00
2018-06-13T19:28:32.539Z,1.83
2018-06-13T19:31:01.422Z,1.80
2018-06-13T19:33:29.635Z,1.80
2018-06-13T19:35:57.882Z,2.03
2018-06-13T19:38:26.114Z,1.90
2018-06-13T19:40:54.121Z,2.00
2018-06-13T19:43:27.697Z,2.20
2018-06-13T19:45:55.935Z,2.00
2018-06-13T19:48:29.464Z,2.20
2018-06-13T19:50:57.490Z,1.87
2018-06-13T19:53:31.146Z,2.10
2018-06-13T19:56:04.944Z,2.43
2018-06-13T19:58:33.684Z,1.70
2018-06-13T20:01:01.907Z,2.30
2018-06-13T20:03:35.697Z,1.87
2018-06-13T20:06:03.728Z,2.33
2018-06-13T20:08:31.983Z,2.27
2018-06-13T20:11:00.307Z,2.07
2018-06-13T20:13:33.860Z,2.40
2018-06-13T20:16:07.439Z,2.40
2018-06-13T20:18:41.064Z,2.30
2018-06-13T20:21:10.409Z,2.20
2018-06-13T20:23:39.021Z,2.10
2018-06-13T20:26:12.578Z,2.40
2018-06-13T20:28:46.149Z,2.30
2018-06-13T20:31:15.909Z,2.10
2018-06-13T20:33:44.197Z,2.40
2018-06-13T20:36:12.409Z,2.03
2018-06-13T20:38:40.643Z,2.03
2018-06-13T20:41:08.898Z,2.60
2018-06-13T20:43:37.134Z,2.20
2018-06-13T20:46:05.500Z,2.47
2018-06-13T20:48:33.997Z,2.30
2018-06-13T20:51:02.257Z,2.43
2018-06-13T20:53:30.494Z,1.87
2018-06-13T20:55:58.779Z,2.30
2018-06-13T20:58:26.994Z,2.33
2018-06-13T21:00:55.219Z,2.37
2018-06-13T21:03:23.501Z,2.53
2018-06-13T21:05:51.741Z,2.73
2018-06-13T21:08:20.402Z,2.97
2018-06-13T21:10:48.616Z,2.47
2018-06-13T21:13:16.645Z,2.93
2018-06-13T21:15:44.856Z,3.00
2018-06-13T21:18:13.072Z,2.47
2018-06-13T21:20:41.305Z,2.30
2018-06-13T21:23:09.643Z,2.50
2018-06-13T21:25:37.867Z,2.40
2018-06-13T21:28:06.210Z,2.50
2018-06-13T21:30:34.451Z,2.50
2018-06-13T21:33:02.664Z,2.27
2018-06-13T21:35:30.901Z,2.10
2018-06-13T21:37:59.098Z,2.80
2018-06-13T21:40:27.339Z,2.63
2018-06-13T21:42:55.555Z,2.63
2018-06-13T21:45:23.897Z,2.47
2018-06-13T21:47:52.171Z,2.40
2018-06-13T21:50:20.398Z,2.57
2018-06-13T21:52:48.615Z,2.23
2018-06-13T21:55:16.837Z,2.67
2018-06-13T21:57:45.084Z,2.53
2018-06-13T22:00:13.325Z,2.93
2018-06-13T22:02:41.559Z,2.80
2018-06-13T22:05:09.859Z,2.40
2018-06-13T22:07:38.095Z,2.50
2018-06-13T22:10:06.356Z,2.60
2018-06-13T22:12:34.661Z,2.80
2018-06-13T22:15:02.905Z,2.20
2018-06-13T22:17:31.116Z,2.70
2018-06-13T22:19:59.101Z,2.57
2018-06-13T22:22:27.335Z,2.80
2018-06-13T22:24:55.556Z,2.40
2018-06-13T22:27:23.780Z,2.40
2018-06-13T22:29:51.975Z,2.07
2018-06-13T22:32:20.217Z,2.30
2018-06-13T22:34:48.423Z,2.30
2018-06-13T22:37:16.450Z,2.43
2018-06-13T22:39:44.647Z,2.30
2018-06-13T22:42:13.683Z,2.20
2018-06-13T22:44:41.928Z,2.07
2018-06-13T22:47:10.148Z,2.33
2018-06-13T22:49:38.370Z,2.40
2018-06-13T22:52:06.648Z,6.00
2018-06-13T22:54:34.855Z,2.60
2018-06-13T22:57:03.083Z,2.60
2018-06-13T22:59:31.536Z,2.33
2018-06-13T23:01:59.760Z,2.10
2018-06-13T23:04:27.753Z,2.23
2018-06-13T23:06:55.988Z,2.20
2018-06-13T23:09:24.215Z,2.67
2018-06-13T23:11:52.455Z,2.20
2018-06-13T23:14:20.659Z,2.60
2018-06-13T23:16:48.869Z,1.83
2018-06-13T23:19:17.155Z,2.10
2018-06-13T23:21:45.376Z,2.17
2018-06-13T23:24:13.658Z,2.13
2018-06-13T23:26:41.897Z,3.10
2018-06-13T23:29:10.107Z,2.43
2018-06-13T23:31:38.290Z,2.30
2018-06-13T23:34:06.515Z,2.73
2018-06-13T23:36:34.510Z,2.00
2018-06-13T23:39:02.763Z,2.60
2018-06-13T23:41:30.976Z,2.00
2018-06-13T23:43:59.203Z,2.30
2018-06-13T23:46:27.414Z,2.27
2018-06-13T23:48:55.664Z,1.80
2018-06-13T23:51:23.875Z,2.10
2018-06-13T23:53:52.106Z,2.20
2018-06-13T23:56:20.377Z,1.70
2018-06-13T23:58:48.381Z,2.70
